Time;durP1;ratioP1;P1;durP2;ratioP2;P2;SDS_P1;SDS_P2;PMS_P1;PMS_P2;Temp;Humidity;BMP_temperature;BMP_pressure;BME280_temperature;BME280_humidity;BME280_pressure;Samples;Min_cycle;Max_cycle;Signal;HPM_P1;HPM_P2
2024/01/25 00:01:23;;;;;;;15.17;4.63;;;10.60;99.90;;;;;;6193207;23;20408;-78
2024/01/25 00:03:58;;;;;;;10.10;3.80;;;10.60;99.90;;;;;;6191017;23;20466;-77
2024/01/25 00:06:29;;;;;;;12.20;4.60;;;10.60;99.90;;;;;;6191073;23;20411;-78
2024/01/25 00:09:04;;;;;;;14.03;4.70;;;10.60;99.90;;;;;;6189924;23;20500;-78
2024/01/25 00:11:45;;;;;;;15.00;4.30;;;10.60;99.90;;;;;;6190222;23;20473;-77
2024/01/25 00:14:16;;;;;;;16.53;3.57;;;10.60;99.90;;;;;;6190465;23;20442;-77
2024/01/25 00:16:56;;;;;;;14.40;3.80;;;10.60;99.90;;;;;;6189593;23;20412;-77
2024/01/25 00:22:13;;;;;;;15.60;4.33;;;10.60;99.90;;;;;;6193830;23;20449;-76
2024/01/25 00:24:44;;;;;;;15.07;4.27;;;10.60;99.90;;;;;;6192774;23;20414;-76
2024/01/25 00:27:12;;;;;;;15.10;4.07;;;10.60;99.90;;;;;;6193605;23;20415;-78
2024/01/25 00:29:48;;;;;;;18.27;4.40;;;10.60;99.90;;;;;;6196482;23;20413;-76
2024/01/25 00:32:16;;;;;;;16.37;4.07;;;10.30;99.90;;;;;;6199967;23;20395;-77
2024/01/25 00:34:47;;;;;;;12.00;4.30;;;10.60;99.90;;;;;;6198435;23;20403;-77
2024/01/25 00:37:16;;;;;;;14.53;3.83;;;10.60;99.90;;;;;;6198895;23;20411;-77
2024/01/25 00:39:44;;;;;;;16.20;5.20;;;10.60;99.90;;;;;;6199284;23;20438;-77
2024/01/25 00:42:15;;;;;;;11.30;3.27;;;10.60;99.90;;;;;;6199161;23;20751;-79
2024/01/25 00:44:52;;;;;;;19.40;5.33;;;10.60;99.90;;;;;;6200145;23;20403;-78
2024/01/25 00:47:21;;;;;;;17.40;4.23;;;10.60;99.90;;;;;;6199390;23;20445;-77
2024/01/25 00:49:49;;;;;;;10.53;4.70;;;10.60;99.90;;;;;;6199470;23;20463;-79
2024/01/25 00:52:22;;;;;;;19.70;6.93;;;10.30;99.90;;;;;;6198018;23;20412;-77
2024/01/25 00:54:54;;;;;;;20.10;5.60;;;10.60;99.90;;;;;;6197566;23;20407;-78
2024/01/25 00:57:34;;;;;;;20.47;5.60;;;10.60;99.90;;;;;;6164765;23;20407;-77
2024/01/25 01:00:21;;;;;;;11.90;5.13;;;10.30;99.90;;;;;;6190788;23;20434;-78
2024/01/25 01:02:59;;;;;;;19.13;5.37;;;10.60;99.90;;;;;;6188625;23;20501;-78
2024/01/25 01:05:33;;;;;;;20.10;5.50;;;10.60;99.90;;;;;;6189697;23;20473;-79
2024/01/25 01:08:14;;;;;;;17.77;4.47;;;10.60;99.90;;;;;;6190459;23;20482;-78
2024/01/25 01:10:55;;;;;;;21.67;4.60;;;10.60;99.90;;;;;;6189526;23;20423;-76
2024/01/25 01:13:31;;;;;;;13.03;4.93;;;10.30;99.90;;;;;;6197657;23;20492;-78
2024/01/25 01:16:04;;;;;;;20.67;5.33;;;10.60;99.90;;;;;;6198740;23;20410;-79
2024/01/25 01:18:38;;;;;;;14.47;5.10;;;10.30;99.90;;;;;;6197545;23;20402;-77
2024/01/25 01:21:13;;;;;;;14.80;4.30;;;10.60;99.90;;;;;;6199053;23;20411;-78
2024/01/25 01:23:50;;;;;;;16.67;4.20;;;10.60;99.90;;;;;;6200665;23;20434;-77
2024/01/25 01:26:18;;;;;;;18.53;5.20;;;10.60;99.90;;;;;;6199704;23;20901;-77
2024/01/25 01:28:49;;;;;;;13.87;4.00;;;10.60;99.90;;;;;;6189872;23;20441;-76
2024/01/25 01:31:21;;;;;;;11.83;4.20;;;10.60;99.90;;;;;;6190076;23;20411;-77
2024/01/25 01:33:52;;;;;;;13.83;3.83;;;10.60;99.90;;;;;;6188753;23;20431;-77
2024/01/25 01:36:21;;;;;;;11.83;4.57;;;10.60;99.90;;;;;;6189696;23;20457;-77
2024/01/25 01:38:55;;;;;;;21.03;4.27;;;10.60;99.90;;;;;;6197280;23;20411;-77
2024/01/25 01:41:22;;;;;;;16.10;4.23;;;10.60;99.90;;;;;;6193083;23;20742;-77
2024/01/25 01:43:58;;;;;;;13.63;4.70;;;10.60;99.90;;;;;;6192761;23;20517;-77
2024/01/25 01:46:39;;;;;;;15.80;4.93;;;10.60;99.90;;;;;;6189552;23;20473;-77
2024/01/25 01:49:12;;;;;;;9.17;3.30;;;10.60;99.90;;;;;;6188085;23;20419;-77
2024/01/25 01:51:44;;;;;;;11.83;3.40;;;10.60;99.90;;;;;;6187294;23;20418;-77
2024/01/25 01:54:15;;;;;;;11.07;3.90;;;10.60;99.90;;;;;;6187187;23;20463;-78
2024/01/25 01:56:44;;;;;;;11.53;3.70;;;10.60;99.90;;;;;;6187838;23;20427;-78
2024/01/25 01:59:12;;;;;;;16.83;4.60;;;10.60;99.90;;;;;;6187060;23;20446;-78
2024/01/25 02:01:47;;;;;;;12.53;3.70;;;10.30;99.90;;;;;;6188351;23;20725;-77
2024/01/25 02:04:18;;;;;;;12.47;4.83;;;10.50;99.90;;;;;;6188131;23;20831;-76
2024/01/25 02:06:49;;;;;;;13.23;4.50;;;10.30;99.90;;;;;;6188247;23;20411;-77
2024/01/25 02:09:17;;;;;;;20.73;4.77;;;10.50;99.90;;;;;;6188013;23;20409;-78
2024/01/25 02:11:45;;;;;;;13.30;4.17;;;10.50;99.90;;;;;;6187936;23;20399;-77
2024/01/25 02:14:15;;;;;;;15.47;4.47;;;10.50;99.90;;;;;;6187917;23;20976;-77
2024/01/25 02:16:50;;;;;;;12.90;4.03;;;10.50;99.90;;;;;;6187367;23;20415;-76
2024/01/25 02:19:18;;;;;;;10.80;4.30;;;10.50;99.90;;;;;;6188291;23;20383;-80
2024/01/25 02:21:49;;;;;;;16.03;3.93;;;10.50;99.90;;;;;;6187812;23;20407;-77
2024/01/25 02:24:18;;;;;;;10.27;4.07;;;10.50;99.90;;;;;;6188154;23;20447;-78
2024/01/25 02:26:46;;;;;;;14.00;4.10;;;10.40;99.90;;;;;;6189467;23;20429;-77
2024/01/25 02:29:14;;;;;;;9.63;3.47;;;10.50;99.90;;;;;;6201712;23;20412;-76
2024/01/25 02:31:47;;;;;;;9.50;3.63;;;10.50;99.90;;;;;;6202133;23;20398;-76
2024/01/25 02:34:18;;;;;;;16.20;4.67;;;10.60;99.90;;;;;;6198052;23;20423;-77
2024/01/25 02:36:50;;;;;;;14.33;4.17;;;10.40;99.90;;;;;;6190495;23;20407;-77
2024/01/25 02:39:24;;;;;;;13.87;4.33;;;10.60;99.90;;;;;;6191675;23;20721;-76
2024/01/25 02:41:59;;;;;;;11.83;3.43;;;10.40;99.90;;;;;;6191144;23;20859;-76
2024/01/25 02:44:28;;;;;;;16.33;4.90;;;10.40;99.90;;;;;;6195590;23;20462;-77
2024/01/25 02:47:01;;;;;;;11.93;4.03;;;10.40;99.90;;;;;;6197790;23;20439;-77
2024/01/25 02:49:32;;;;;;;16.60;4.60;;;10.40;99.90;;;;;;6203607;23;20491;-77
2024/01/25 02:52:00;;;;;;;13.73;4.43;;;10.40;99.90;;;;;;6201101;23;20414;-79
2024/01/25 02:54:30;;;;;;;13.90;4.80;;;10.30;99.90;;;;;;6203557;23;20431;-77
2024/01/25 02:57:01;;;;;;;11.03;3.17;;;10.30;99.90;;;;;;6203891;23;20407;-78
2024/01/25 02:59:29;;;;;;;19.63;4.77;;;10.30;99.90;;;;;;6204080;23;20446;-79
2024/01/25 03:02:00;;;;;;;15.60;3.90;;;10.30;99.90;;;;;;6206318;23;20414;-77
2024/01/25 03:04:31;;;;;;;17.83;3.60;;;10.30;99.90;;;;;;6201734;23;20522;-77
2024/01/25 03:07:05;;;;;;;16.70;4.33;;;10.30;99.90;;;;;;6203216;23;20390;-77
2024/01/25 03:09:37;;;;;;;15.33;4.43;;;10.30;99.90;;;;;;6203753;23;20403;-77
2024/01/25 03:12:06;;;;;;;12.83;4.80;;;10.20;99.90;;;;;;6201701;23;20411;-77
2024/01/25 03:14:35;;;;;;;10.77;4.20;;;10.20;99.90;;;;;;6201535;23;20407;-78
2024/01/25 03:17:13;;;;;;;16.23;4.53;;;10.20;99.90;;;;;;6202881;23;20415;-76
2024/01/25 03:19:41;;;;;;;13.67;3.83;;;10.20;99.90;;;;;;6203387;23;20380;-76
2024/01/25 03:22:11;;;;;;;10.50;3.87;;;10.20;99.90;;;;;;6197147;23;20396;-77
2024/01/25 03:24:52;;;;;;;16.33;3.80;;;10.20;99.90;;;;;;6197850;23;20443;-77
2024/01/25 03:27:28;;;;;;;12.30;3.60;;;10.20;99.90;;;;;;6196410;23;20415;-77
2024/01/25 03:29:57;;;;;;;12.73;4.40;;;10.20;99.90;;;;;;6196068;23;20503;-77
2024/01/25 03:32:28;;;;;;;10.30;3.70;;;10.20;99.90;;;;;;6196136;23;20442;-80
2024/01/25 03:34:58;;;;;;;20.00;3.93;;;9.90;99.90;;;;;;6192687;23;20422;-78
2024/01/25 03:37:30;;;;;;;10.70;3.60;;;10.20;99.90;;;;;;6187215;23;20411;-77
2024/01/25 03:40:04;;;;;;;19.47;3.80;;;10.20;99.90;;;;;;6188307;23;20712;-77
2024/01/25 03:42:34;;;;;;;11.90;4.33;;;10.20;99.90;;;;;;6186863;23;20431;-77
2024/01/25 03:45:06;;;;;;;8.73;3.57;;;10.10;99.90;;;;;;6186791;23;20392;-76
2024/01/25 03:47:38;;;;;;;15.47;4.80;;;10.10;99.90;;;;;;6186502;23;20891;-77
2024/01/25 03:50:20;;;;;;;10.00;3.97;;;10.10;99.90;;;;;;6187395;23;20438;-77
2024/01/25 03:53:06;;;;;;;11.10;3.50;;;10.10;99.90;;;;;;6188166;23;20438;-77
2024/01/25 03:55:38;;;;;;;18.50;4.03;;;10.10;99.90;;;;;;6190383;23;20411;-78
2024/01/25 03:58:12;;;;;;;10.80;4.00;;;10.10;99.90;;;;;;6191692;23;20862;-76
2024/01/25 04:00:47;;;;;;;14.27;4.03;;;10.10;99.90;;;;;;6188182;23;20901;-78
2024/01/25 04:03:21;;;;;;;15.13;3.80;;;10.20;99.90;;;;;;6185812;23;20442;-78
2024/01/25 04:05:54;;;;;;;17.50;3.50;;;9.70;99.90;;;;;;6186229;23;20805;-77
2024/01/25 04:08:30;;;;;;;14.87;3.90;;;9.90;99.90;;;;;;6187724;23;20414;-76
2024/01/25 04:11:09;;;;;;;12.00;4.20;;;9.90;99.90;;;;;;6188073;23;20832;-77
2024/01/25 04:13:44;;;;;;;15.13;4.90;;;9.90;99.90;;;;;;6187722;23;20922;-78
2024/01/25 04:16:30;;;;;;;11.77;3.90;;;9.90;99.90;;;;;;6186121;23;20410;-78
2024/01/25 04:19:04;;;;;;;13.10;3.50;;;9.90;99.90;;;;;;6185412;23;20501;-76
2024/01/25 04:21:49;;;;;;;11.73;4.13;;;9.90;99.90;;;;;;6185448;23;20550;-77
2024/01/25 04:24:24;;;;;;;14.07;4.27;;;9.80;99.90;;;;;;6187855;23;20523;-78
2024/01/25 04:26:56;;;;;;;17.90;3.60;;;9.80;99.90;;;;;;6190317;23;20497;-75
2024/01/25 04:29:25;;;;;;;22.13;4.87;;;9.60;99.90;;;;;;6191052;23;20819;-76
2024/01/25 04:31:54;;;;;;;16.27;4.60;;;9.80;99.90;;;;;;6190700;23;20419;-76
2024/01/25 04:34:25;;;;;;;12.20;4.27;;;9.80;99.90;;;;;;6191633;23;20430;-77
2024/01/25 04:36:57;;;;;;;11.00;4.00;;;9.80;99.90;;;;;;6192698;23;20410;-77
2024/01/25 04:39:27;;;;;;;12.83;3.50;;;9.80;99.90;;;;;;6192602;23;20482;-77
2024/01/25 04:41:57;;;;;;;13.40;4.53;;;9.70;99.90;;;;;;6193771;23;20481;-78
2024/01/25 04:44:24;;;;;;;11.43;3.97;;;9.70;99.90;;;;;;6192010;23;20468;-78
2024/01/25 04:46:54;;;;;;;14.33;4.30;;;9.70;99.90;;;;;;6191801;23;20427;-78
2024/01/25 04:49:34;;;;;;;15.97;4.53;;;9.70;99.90;;;;;;6192713;23;20396;-78
2024/01/25 04:52:05;;;;;;;13.77;4.67;;;9.70;99.90;;;;;;6191760;23;20415;-78
2024/01/25 04:54:33;;;;;;;15.00;4.37;;;9.70;99.90;;;;;;6189782;23;20384;-77
2024/01/25 04:57:13;;;;;;;13.47;4.10;;;9.70;99.90;;;;;;6188352;23;20395;-77
2024/01/25 04:59:49;;;;;;;10.63;5.30;;;9.70;99.90;;;;;;6188020;23;20473;-76
2024/01/25 05:02:19;;;;;;;15.33;3.90;;;9.70;99.90;;;;;;6187358;23;20971;-78
2024/01/25 05:04:50;;;;;;;11.87;4.00;;;9.70;99.90;;;;;;6188017;23;20534;-77
2024/01/25 05:07:18;;;;;;;18.53;4.63;;;9.70;99.90;;;;;;6187757;23;20407;-78
2024/01/25 05:09:52;;;;;;;14.70;4.40;;;9.70;99.90;;;;;;6187401;23;20392;-78
2024/01/25 05:12:22;;;;;;;10.97;4.60;;;9.60;99.90;;;;;;6188258;23;20427;-77
2024/01/25 05:14:52;;;;;;;12.67;3.23;;;9.60;99.90;;;;;;6187443;23;20498;-77
2024/01/25 05:17:20;;;;;;;14.60;4.10;;;9.60;99.90;;;;;;6188823;23;20404;-77
2024/01/25 05:19:50;;;;;;;15.30;5.13;;;9.50;99.90;;;;;;6187887;23;20445;-78
2024/01/25 05:22:22;;;;;;;14.60;4.17;;;9.50;99.90;;;;;;6187608;23;20420;-78
2024/01/25 05:24:52;;;;;;;13.10;4.00;;;9.50;99.90;;;;;;6192226;23;20445;-77
2024/01/25 05:27:22;;;;;;;11.60;3.67;;;9.40;99.90;;;;;;6190400;23;20502;-77
2024/01/25 05:29:53;;;;;;;12.93;4.17;;;9.50;99.90;;;;;;6187755;23;20460;-78
2024/01/25 05:32:22;;;;;;;10.63;4.13;;;9.40;99.90;;;;;;6190485;23;20431;-78
2024/01/25 05:34:54;;;;;;;11.47;4.10;;;9.30;99.90;;;;;;6187770;23;20493;-78
2024/01/25 05:37:22;;;;;;;10.10;3.27;;;9.30;99.90;;;;;;6188593;23;20442;-77
2024/01/25 05:39:50;;;;;;;12.73;3.93;;;9.30;99.90;;;;;;6187429;23;20414;-77
2024/01/25 05:42:26;;;;;;;12.77;3.83;;;9.30;99.90;;;;;;6187812;23;20395;-78
2024/01/25 05:44:54;;;;;;;14.53;4.23;;;9.30;99.90;;;;;;6189649;23;20439;-81
2024/01/25 05:47:31;;;;;;;17.23;4.40;;;9.00;99.90;;;;;;6190379;23;20436;-77
2024/01/25 05:49:59;;;;;;;12.90;3.93;;;9.20;99.90;;;;;;6188066;23;20474;-79
2024/01/25 05:52:29;;;;;;;10.50;3.87;;;9.10;99.90;;;;;;6189091;23;20431;-79
2024/01/25 05:55:00;;;;;;;10.23;4.07;;;9.10;99.90;;;;;;6188333;23;20426;-76
2024/01/25 05:57:29;;;;;;;15.27;4.80;;;9.20;99.90;;;;;;6188528;23;20394;-77
2024/01/25 05:59:57;;;;;;;14.90;4.13;;;9.00;99.90;;;;;;6187469;23;20414;-79
2024/01/25 06:02:24;;;;;;;13.70;3.87;;;9.10;99.90;;;;;;6189373;23;20411;-79
2024/01/25 06:04:52;;;;;;;13.27;4.13;;;9.00;99.90;;;;;;6190005;23;20748;-77
2024/01/25 06:07:21;;;;;;;12.33;4.43;;;9.00;99.90;;;;;;6191837;23;20418;-77
2024/01/25 06:09:48;;;;;;;19.13;4.50;;;8.90;99.90;;;;;;6191620;23;20411;-78
2024/01/25 06:12:22;;;;;;;18.77;5.20;;;8.70;99.90;;;;;;6190364;23;20414;-76
2024/01/25 06:14:53;;;;;;;17.00;4.27;;;8.90;99.90;;;;;;6190512;23;20525;-78
2024/01/25 06:17:21;;;;;;;17.10;4.80;;;8.90;99.90;;;;;;6188984;23;20414;-78
2024/01/25 06:19:49;;;;;;;12.40;4.30;;;9.00;99.90;;;;;;6189065;23;20406;-79
2024/01/25 06:22:19;;;;;;;14.60;4.30;;;8.80;99.90;;;;;;6188451;23;20890;-78
2024/01/25 06:24:52;;;;;;;13.13;5.40;;;8.50;99.90;;;;;;6190404;23;20465;-77
2024/01/25 06:27:26;;;;;;;17.20;4.50;;;8.80;99.90;;;;;;6193168;23;20407;-78
2024/01/25 06:30:07;;;;;;;16.07;4.17;;;8.90;99.90;;;;;;6194282;23;20467;-78
2024/01/25 06:32:38;;;;;;;18.97;4.60;;;8.70;99.90;;;;;;6200625;23;20434;-78
2024/01/25 06:35:07;;;;;;;13.47;4.50;;;8.70;99.90;;;;;;6197925;23;20490;-77
2024/01/25 06:37:38;;;;;;;11.37;5.10;;;8.70;99.90;;;;;;6195995;23;20786;-78
2024/01/25 06:40:09;;;;;;;14.30;4.60;;;8.60;99.90;;;;;;6199100;23;20406;-75
2024/01/25 06:42:39;;;;;;;15.13;4.23;;;8.70;99.90;;;;;;6198195;23;20412;-76
2024/01/25 06:45:09;;;;;;;17.17;4.67;;;8.60;99.90;;;;;;6198460;23;20442;-78
2024/01/25 06:47:36;;;;;;;14.57;4.90;;;8.70;99.90;;;;;;6203160;23;20474;-79
2024/01/25 06:50:05;;;;;;;13.00;4.27;;;8.60;99.90;;;;;;6204846;23;20415;-77
2024/01/25 06:52:36;;;;;;;15.20;4.67;;;8.60;99.90;;;;;;6204782;23;20415;-78
2024/01/25 06:55:10;;;;;;;14.17;4.90;;;8.80;99.90;;;;;;6203857;23;20395;-77
2024/01/25 06:57:40;;;;;;;21.10;4.50;;;8.30;99.90;;;;;;6201345;23;20475;-77
2024/01/25 07:00:15;;;;;;;18.27;4.50;;;8.70;99.90;;;;;;6199877;23;20441;-77
2024/01/25 07:02:43;;;;;;;16.53;5.20;;;8.70;99.90;;;;;;6197766;23;20434;-77
2024/01/25 07:05:13;;;;;;;18.33;5.30;;;8.50;99.90;;;;;;6195912;23;20466;-78
2024/01/25 07:07:47;;;;;;;18.07;6.00;;;8.70;99.90;;;;;;6195783;23;20399;-77
2024/01/25 07:10:17;;;;;;;15.67;4.40;;;8.50;99.90;;;;;;6194873;23;20375;-78
2024/01/25 07:12:45;;;;;;;13.37;4.80;;;8.50;99.90;;;;;;6190204;23;20484;-79
2024/01/25 07:15:18;;;;;;;14.40;5.70;;;8.70;99.90;;;;;;6187540;23;20407;-77
2024/01/25 07:17:53;;;;;;;20.40;7.30;;;8.40;99.90;;;;;;6187958;23;20795;-78
2024/01/25 07:20:22;;;;;;;16.53;5.40;;;8.40;99.90;;;;;;6187352;23;20984;-78
2024/01/25 07:22:55;;;;;;;17.57;6.80;;;8.60;99.90;;;;;;6186660;23;20427;-78
2024/01/25 07:25:23;;;;;;;16.67;4.60;;;8.40;99.90;;;;;;6186366;23;20435;-79
2024/01/25 07:27:55;;;;;;;18.33;6.00;;;8.40;99.90;;;;;;6186210;23;20418;-78
2024/01/25 07:30:26;;;;;;;20.23;5.00;;;8.40;99.90;;;;;;6186126;23;20421;-80
2024/01/25 07:33:01;;;;;;;13.63;4.60;;;8.40;99.90;;;;;;6187581;23;20477;-77
2024/01/25 07:35:30;;;;;;;15.80;4.80;;;8.40;99.90;;;;;;6189667;23;20898;-78
2024/01/25 07:38:00;;;;;;;16.83;4.87;;;8.70;99.90;;;;;;6194647;23;20434;-77
2024/01/25 07:40:28;;;;;;;15.70;4.67;;;8.60;99.90;;;;;;6204065;23;20411;-78
2024/01/25 07:42:58;;;;;;;15.77;4.97;;;8.40;99.90;;;;;;6202392;23;20503;-79
2024/01/25 07:45:29;;;;;;;12.13;4.30;;;8.40;99.90;;;;;;6199307;23;20427;-77
2024/01/25 07:47:57;;;;;;;19.03;5.03;;;8.40;99.90;;;;;;6193970;23;20384;-78
2024/01/25 07:50:26;;;;;;;17.50;4.43;;;8.40;99.90;;;;;;6190410;23;20403;-77
2024/01/25 07:52:56;;;;;;;16.37;4.73;;;8.40;99.90;;;;;;6187845;23;20635;-77
2024/01/25 07:55:25;;;;;;;13.00;4.77;;;8.40;99.90;;;;;;6186893;23;20437;-77
2024/01/25 07:57:53;;;;;;;14.43;4.83;;;8.50;99.90;;;;;;6185373;23;20462;-77
2024/01/25 08:00:21;;;;;;;15.43;4.20;;;8.50;99.90;;;;;;6187341;23;20411;-77
2024/01/25 08:02:55;;;;;;;18.13;5.57;;;8.60;99.90;;;;;;6185641;23;20443;-77
2024/01/25 08:05:25;;;;;;;17.80;4.90;;;8.70;99.90;;;;;;6185460;23;20442;-77
2024/01/25 08:08:00;;;;;;;13.37;4.37;;;9.00;99.90;;;;;;6184357;23;20466;-77
2024/01/25 08:10:27;;;;;;;16.47;4.37;;;8.90;99.90;;;;;;6184780;23;20410;-78
2024/01/25 08:12:55;;;;;;;14.50;5.17;;;8.90;99.90;;;;;;6185807;23;20427;-77
2024/01/25 08:15:23;;;;;;;16.37;5.70;;;9.00;99.90;;;;;;6184649;23;20426;-77
2024/01/25 08:17:52;;;;;;;15.23;5.53;;;9.10;99.90;;;;;;6185862;23;20414;-77
2024/01/25 08:20:22;;;;;;;20.67;4.20;;;9.20;99.90;;;;;;6186990;23;20431;-77
2024/01/25 08:22:50;;;;;;;15.37;4.70;;;9.30;99.90;;;;;;6186974;23;20431;-77
2024/01/25 08:25:18;;;;;;;14.07;4.80;;;9.40;99.90;;;;;;6185847;23;20459;-78
2024/01/25 08:27:48;;;;;;;18.67;4.90;;;9.50;99.90;;;;;;6189026;23;20514;-80
2024/01/25 08:30:16;;;;;;;24.63;5.00;;;9.70;99.90;;;;;;6190452;23;20414;-78
2024/01/25 08:32:47;;;;;;;19.40;4.30;;;9.90;99.90;;;;;;6186230;23;20498;-78
2024/01/25 08:35:17;;;;;;;21.67;4.70;;;10.10;99.90;;;;;;6185707;23;20429;-78
2024/01/25 08:37:44;;;;;;;11.57;3.80;;;10.00;99.90;;;;;;6184931;23;20714;-78
2024/01/25 08:40:13;;;;;;;16.67;4.30;;;10.00;99.90;;;;;;6185403;23;20411;-77
2024/01/25 08:42:42;;;;;;;12.57;4.60;;;10.30;99.90;;;;;;6185775;23;20411;-78
2024/01/25 08:45:10;;;;;;;16.37;4.93;;;10.50;99.90;;;;;;6185954;23;21025;-78
2024/01/25 08:47:41;;;;;;;16.70;4.70;;;10.60;99.90;;;;;;6184973;23;20481;-78
2024/01/25 08:50:13;;;;;;;15.70;4.90;;;10.80;99.90;;;;;;6186667;23;20411;-78
2024/01/25 08:52:43;;;;;;;18.17;4.43;;;11.10;99.90;;;;;;6187548;23;20458;-79
2024/01/25 08:55:18;;;;;;;12.40;4.03;;;11.20;99.90;;;;;;6187202;23;20410;-77
2024/01/25 08:57:46;;;;;;;13.20;5.10;;;11.20;99.90;;;;;;6186479;23;20497;-78
2024/01/25 09:00:18;;;;;;;17.40;4.30;;;11.10;99.90;;;;;;6187495;23;20396;-77
2024/01/25 09:02:46;;;;;;;14.73;4.50;;;11.30;99.90;;;;;;6187392;23;20434;-79
2024/01/25 09:05:17;;;;;;;11.93;3.90;;;11.10;99.90;;;;;;6188910;23;20446;-76
2024/01/25 09:07:51;;;;;;;13.53;3.67;;;11.10;99.90;;;;;;6191464;23;20411;-78
2024/01/25 09:10:19;;;;;;;11.80;5.33;;;11.10;99.90;;;;;;6189277;23;20970;-77
2024/01/25 09:12:52;;;;;;;15.80;3.87;;;11.30;99.90;;;;;;6191618;23;20526;-78
2024/01/25 09:15:20;;;;;;;12.40;4.20;;;11.60;99.90;;;;;;6194135;23;20438;-78
2024/01/25 09:17:50;;;;;;;14.17;4.07;;;11.70;99.90;;;;;;6186654;23;20454;-77
2024/01/25 09:20:23;;;;;;;13.03;4.37;;;11.90;99.90;;;;;;6185576;23;20414;-78
2024/01/25 09:23:01;;;;;;;14.53;5.43;;;12.00;99.90;;;;;;6186158;23;20517;-78
2024/01/25 09:25:31;;;;;;;11.73;4.10;;;12.00;99.90;;;;;;6187515;23;20437;-78
2024/01/25 09:27:59;;;;;;;17.23;5.53;;;11.90;99.90;;;;;;6185228;23;20415;-78
2024/01/25 09:30:31;;;;;;;15.10;4.20;;;12.00;99.90;;;;;;6185631;23;20411;-77
2024/01/25 09:33:00;;;;;;;13.17;3.80;;;12.00;99.90;;;;;;6188112;23;20455;-79
2024/01/25 09:35:30;;;;;;;11.67;3.77;;;12.10;99.90;;;;;;6188567;23;20411;-78
2024/01/25 09:38:02;;;;;;;11.93;4.00;;;12.30;99.90;;;;;;6187480;23;20411;-78
2024/01/25 09:40:33;;;;;;;10.63;4.13;;;12.00;99.90;;;;;;6188026;23;20407;-80
2024/01/25 09:43:10;;;;;;;14.30;4.17;;;12.10;99.90;;;;;;6191365;23;20443;-78
2024/01/25 09:45:46;;;;;;;13.17;5.00;;;12.10;99.90;;;;;;6194664;23;20441;-80
2024/01/25 09:48:18;;;;;;;13.57;4.70;;;12.10;99.90;;;;;;6200612;23;20463;-79
2024/01/25 09:50:48;;;;;;;8.73;3.50;;;12.20;99.90;;;;;;6205318;23;20422;-77
2024/01/25 09:53:26;;;;;;;15.40;4.03;;;12.60;99.90;;;;;;6197664;23;20414;-79
2024/01/25 09:56:10;;;;;;;14.10;5.20;;;12.90;99.90;;;;;;6200901;23;20409;-78
2024/01/25 09:58:43;;;;;;;15.67;3.63;;;12.30;99.90;;;;;;6198309;23;20724;-77
2024/01/25 10:01:15;;;;;;;12.57;4.43;;;12.40;99.90;;;;;;6195367;23;20407;-77
2024/01/25 10:03:48;;;;;;;13.47;3.90;;;12.30;99.90;;;;;;6193274;23;20427;-79
2024/01/25 10:06:20;;;;;;;13.00;4.40;;;12.20;99.90;;;;;;6193335;23;20449;-78
2024/01/25 10:08:49;;;;;;;13.50;4.00;;;12.30;99.90;;;;;;6190885;23;20411;-78
2024/01/25 10:11:21;;;;;;;14.37;3.93;;;12.20;99.90;;;;;;6192696;23;20415;-79
2024/01/25 10:13:52;;;;;;;15.03;4.53;;;12.00;99.90;;;;;;6193049;23;20427;-78
2024/01/25 10:16:21;;;;;;;15.43;4.70;;;11.80;99.90;;;;;;6195096;23;20408;-78
2024/01/25 10:18:51;;;;;;;11.33;3.90;;;11.90;99.90;;;;;;6192685;23;20423;-78
2024/01/25 10:21:19;;;;;;;9.27;3.67;;;12.30;99.90;;;;;;6192903;23;20761;-78
2024/01/25 10:23:54;;;;;;;10.83;3.80;;;12.40;99.90;;;;;;6191607;23;20533;-78
2024/01/25 10:26:30;;;;;;;11.03;4.20;;;12.40;99.90;;;;;;6195088;23;20434;-79
2024/01/25 10:28:59;;;;;;;16.50;3.93;;;12.30;99.90;;;;;;6196163;23;20430;-77
2024/01/25 10:31:31;;;;;;;16.70;3.93;;;12.20;99.90;;;;;;6195928;23;20411;-77
2024/01/25 10:34:09;;;;;;;14.37;3.33;;;12.20;99.90;;;;;;6194303;23;20469;-77
2024/01/25 10:36:38;;;;;;;10.10;3.50;;;12.20;99.90;;;;;;6195068;23;20759;-78
2024/01/25 10:39:10;;;;;;;14.20;3.73;;;12.30;99.90;;;;;;6196179;23;20498;-77
2024/01/25 10:41:40;;;;;;;17.30;4.67;;;12.40;99.90;;;;;;6195388;23;20411;-78
2024/01/25 10:44:14;;;;;;;10.00;4.00;;;12.90;99.90;;;;;;6194554;23;20431;-79
2024/01/25 10:46:45;;;;;;;8.17;3.40;;;13.10;99.90;;;;;;6194808;23;20592;-77
2024/01/25 10:49:14;;;;;;;8.87;3.60;;;13.10;99.90;;;;;;6199076;23;20403;-79
2024/01/25 10:51:47;;;;;;;13.07;3.93;;;13.50;99.90;;;;;;6199088;23;20415;-79
2024/01/25 10:54:22;;;;;;;13.80;4.07;;;13.10;99.90;;;;;;6197659;23;20435;-80
2024/01/25 10:57:02;;;;;;;13.67;4.10;;;13.30;99.90;;;;;;6198847;23;20413;-78
2024/01/25 10:59:36;;;;;;;10.10;3.60;;;13.00;99.90;;;;;;6196049;23;20418;-77
2024/01/25 11:02:14;;;;;;;14.13;4.87;;;13.40;99.90;;;;;;6198811;23;20407;-77
2024/01/25 11:04:46;;;;;;;14.40;4.50;;;13.00;99.90;;;;;;6197575;23;20438;-78
2024/01/25 11:07:22;;;;;;;14.60;3.90;;;12.70;99.90;;;;;;6195143;23;20411;-78
2024/01/25 11:09:59;;;;;;;14.57;3.80;;;12.50;99.90;;;;;;6193895;23;20521;-79
2024/01/25 11:12:34;;;;;;;12.97;3.87;;;12.30;99.90;;;;;;6193008;23;20446;-78
2024/01/25 11:15:17;;;;;;;10.83;4.33;;;12.90;99.90;;;;;;6194889;23;20414;-78
2024/01/25 11:17:55;;;;;;;11.60;3.87;;;13.30;99.90;;;;;;6191671;23;20755;-78
2024/01/25 11:20:24;;;;;;;16.87;4.53;;;13.20;99.90;;;;;;6193571;23;20411;-77
2024/01/25 11:22:57;;;;;;;10.70;3.83;;;13.20;99.90;;;;;;6193449;23;20505;-78
2024/01/25 11:25:31;;;;;;;10.47;3.43;;;13.00;99.90;;;;;;6193545;23;20466;-77
2024/01/25 11:28:02;;;;;;;10.63;3.27;;;13.00;99.90;;;;;;6191612;23;20399;-79
2024/01/25 11:30:36;;;;;;;9.93;3.00;;;13.00;99.90;;;;;;6193505;23;20415;-78
2024/01/25 11:33:07;;;;;;;15.47;3.80;;;13.10;99.90;;;;;;6196465;23;20431;-78
2024/01/25 11:35:35;;;;;;;14.50;4.30;;;13.30;99.90;;;;;;6193887;23;20518;-80
2024/01/25 11:38:05;;;;;;;14.47;3.83;;;13.30;99.90;;;;;;6194245;23;20931;-79
2024/01/25 11:40:37;;;;;;;13.10;4.30;;;13.80;99.90;;;;;;6192324;23;20430;-80
2024/01/25 11:43:14;;;;;;;8.63;3.13;;;14.10;99.90;;;;;;6190301;23;20427;-80
2024/01/25 11:45:43;;;;;;;13.30;3.93;;;14.40;99.90;;;;;;6191111;23;20442;-79
2024/01/25 11:48:13;;;;;;;7.63;3.00;;;14.60;99.90;;;;;;6193616;23;21052;-78
2024/01/25 11:50:41;;;;;;;9.40;3.30;;;14.40;99.90;;;;;;6195013;23;20403;-78
2024/01/25 11:53:09;;;;;;;8.53;3.17;;;14.70;99.90;;;;;;6195179;23;20427;-78
2024/01/25 11:55:46;;;;;;;8.87;3.40;;;14.50;99.90;;;;;;6195786;23;20414;-79
2024/01/25 11:58:18;;;;;;;12.93;4.17;;;14.70;99.90;;;;;;6195094;23;20409;-78
2024/01/25 12:00:51;;;;;;;11.17;4.37;;;14.30;99.90;;;;;;6196006;23;20403;-77
2024/01/25 12:03:23;;;;;;;9.87;3.80;;;14.40;99.90;;;;;;6194439;23;20447;-78
2024/01/25 12:06:01;;;;;;;8.53;3.43;;;14.20;99.90;;;;;;6193527;23;20509;-79
2024/01/25 12:08:34;;;;;;;7.30;2.90;;;14.10;99.90;;;;;;6192289;23;20406;-78
2024/01/25 12:11:11;;;;;;;10.93;3.33;;;13.70;99.90;;;;;;6192107;23;20418;-78
2024/01/25 12:13:44;;;;;;;12.20;3.43;;;13.40;99.90;;;;;;6195527;23;20419;-79
2024/01/25 12:16:14;;;;;;;7.37;3.00;;;13.40;99.90;;;;;;6196798;23;20407;-79
2024/01/25 12:18:47;;;;;;;11.07;3.77;;;13.20;99.90;;;;;;6197516;23;20418;-79
2024/01/25 12:21:19;;;;;;;13.00;4.20;;;12.80;99.90;;;;;;6197571;23;20491;-79
2024/01/25 12:23:52;;;;;;;7.70;2.87;;;13.10;99.90;;;;;;6196547;23;20469;-78
2024/01/25 12:26:21;;;;;;;10.43;3.57;;;13.10;99.90;;;;;;6196084;23;20427;-78
2024/01/25 12:28:52;;;;;;;9.47;3.13;;;12.90;99.90;;;;;;6196233;23;20910;-77
2024/01/25 12:31:22;;;;;;;11.80;3.57;;;12.70;99.90;;;;;;6196560;23;20410;-79
2024/01/25 12:33:54;;;;;;;12.30;4.77;;;12.60;99.90;;;;;;6195518;23;20455;-79
2024/01/25 12:36:30;;;;;;;8.00;2.77;;;12.70;99.90;;;;;;6197023;23;20434;-79
2024/01/25 12:39:00;;;;;;;9.03;3.10;;;12.90;99.90;;;;;;6195347;23;20437;-78
2024/01/25 12:41:31;;;;;;;7.67;2.97;;;12.70;99.90;;;;;;6197391;23;20475;-79
2024/01/25 12:43:58;;;;;;;12.97;6.83;;;12.70;99.90;;;;;;6195718;23;20450;-79
2024/01/25 12:46:26;;;;;;;10.33;2.80;;;13.10;99.90;;;;;;6195014;23;20498;-78
2024/01/25 12:48:59;;;;;;;10.17;3.40;;;13.00;99.90;;;;;;6196324;23;20427;-79
2024/01/25 12:51:27;;;;;;;13.70;3.43;;;13.10;99.90;;;;;;6199102;23;20387;-78
2024/01/25 12:53:55;;;;;;;8.60;3.20;;;13.30;99.90;;;;;;6199443;23;20454;-78
2024/01/25 12:56:43;;;;;;;7.83;2.80;;;12.70;99.90;;;;;;6196387;23;20391;-77
2024/01/25 12:59:10;;;;;;;8.20;2.90;;;12.70;99.90;;;;;;6190531;23;20434;-78
2024/01/25 13:01:38;;;;;;;7.90;3.20;;;12.50;99.90;;;;;;6192434;23;20446;-79
2024/01/25 13:04:08;;;;;;;11.50;3.33;;;12.70;99.90;;;;;;6188501;23;20423;-78
2024/01/25 13:06:41;;;;;;;11.47;4.27;;;13.00;99.90;;;;;;6186497;23;20458;-78